createdAt,value
2023-01-26T00:00:29.004Z,29
2023-01-26T00:01:29.699Z,34
2023-01-26T00:02:29.078Z,28
2023-01-26T00:03:29.947Z,28
2023-01-26T00:04:29.685Z,27
2023-01-26T00:05:29.012Z,27
2023-01-26T00:06:29.025Z,30
2023-01-26T00:07:29.755Z,29
2023-01-26T00:08:29.016Z,26
2023-01-26T00:09:29.135Z,28
2023-01-26T00:10:29.239Z,26
2023-01-26T00:11:29.020Z,28
2023-01-26T00:12:30.048Z,29
2023-01-26T00:13:29.888Z,28
2023-01-26T00:14:30.124Z,28
2023-01-26T00:15:29.573Z,28
2023-01-26T00:16:29.835Z,32
2023-01-26T00:17:29.691Z,31
2023-01-26T00:18:29.380Z,34
2023-01-26T00:19:29.833Z,35
2023-01-26T00:20:29.169Z,33
2023-01-26T00:21:29.696Z,39
2023-01-26T00:22:29.108Z,34
2023-01-26T00:23:29.107Z,34
2023-01-26T00:24:29.124Z,32
2023-01-26T00:25:28.989Z,40
2023-01-26T00:26:29.011Z,28
2023-01-26T00:27:29.049Z,31
2023-01-26T00:28:29.023Z,39
2023-01-26T00:29:29.111Z,40
2023-01-26T00:30:29.045Z,40
2023-01-26T00:31:29.132Z,41
2023-01-26T00:32:29.694Z,46
2023-01-26T00:33:29.691Z,37
2023-01-26T00:34:29.024Z,27
2023-01-26T00:35:29.451Z,31
2023-01-26T00:36:29.572Z,56
2023-01-26T00:37:29.022Z,49
2023-01-26T00:38:29.010Z,63
2023-01-26T00:39:29.112Z,43
2023-01-26T00:40:29.424Z,33
2023-01-26T00:41:29.325Z,26
2023-01-26T00:42:29.120Z,28
2023-01-26T00:43:29.348Z,40
2023-01-26T00:44:29.038Z,45
2023-01-26T00:45:29.869Z,37
2023-01-26T00:46:29.442Z,29
2023-01-26T00:47:29.168Z,45
2023-01-26T00:48:29.892Z,45
2023-01-26T00:49:29.069Z,35
2023-01-26T00:50:28.996Z,41
2023-01-26T00:51:29.691Z,41
2023-01-26T00:52:29.047Z,36
2023-01-26T00:53:29.009Z,43
2023-01-26T00:54:29.343Z,33
2023-01-26T00:55:29.368Z,33
2023-01-26T00:56:29.249Z,35
2023-01-26T00:57:29.231Z,32
2023-01-26T00:58:29.097Z,30
2023-01-26T00:59:29.681Z,28
2023-01-26T01:00:30.032Z,27
2023-01-26T01:01:29.347Z,27
2023-01-26T01:02:29.303Z,29
2023-01-26T01:03:29.148Z,26
2023-01-26T01:04:29.962Z,25
2023-01-26T01:05:29.039Z,30
2023-01-26T01:06:28.148Z,27
2023-01-26T01:07:29.602Z,32
2023-01-26T01:08:29.838Z,33
2023-01-26T01:09:29.099Z,30
2023-01-26T01:10:29.112Z,31
2023-01-26T01:11:28.984Z,27
2023-01-26T01:12:28.996Z,30
2023-01-26T01:13:28.978Z,28
2023-01-26T01:14:28.999Z,25
2023-01-26T01:15:29.627Z,25
2023-01-26T01:16:29.119Z,29
2023-01-26T01:17:29.057Z,24
2023-01-26T01:18:29.005Z,26
2023-01-26T01:19:29.259Z,26
2023-01-26T01:20:29.789Z,27
2023-01-26T01:21:29.434Z,25
2023-01-26T01:22:29.033Z,30
2023-01-26T01:23:29.000Z,32
2023-01-26T01:24:29.324Z,28
2023-01-26T01:25:28.989Z,25
2023-01-26T01:26:28.996Z,23
2023-01-26T01:27:30.043Z,26
2023-01-26T01:28:29.117Z,29
2023-01-26T01:29:29.120Z,25
2023-01-26T01:30:29.129Z,26
2023-01-26T01:31:29.247Z,29
2023-01-26T01:32:29.032Z,28
2023-01-26T01:33:29.099Z,39
2023-01-26T01:34:29.568Z,24
2023-01-26T01:35:29.871Z,34
2023-01-26T01:36:29.284Z,33
2023-01-26T01:37:29.579Z,27
2023-01-26T01:38:29.374Z,27
2023-01-26T01:39:29.800Z,29
2023-01-26T01:40:28.984Z,29
2023-01-26T01:41:29.473Z,25
2023-01-26T01:42:29.761Z,24
2023-01-26T01:43:29.052Z,24
2023-01-26T01:44:29.012Z,26
2023-01-26T01:45:29.408Z,25
2023-01-26T01:46:29.786Z,27
2023-01-26T01:47:29.043Z,26
2023-01-26T01:48:29.147Z,26
2023-01-26T01:49:29.023Z,27
2023-01-26T01:50:29.104Z,26
2023-01-26T01:51:29.185Z,27
2023-01-26T01:52:30.226Z,28
2023-01-26T01:53:29.163Z,26
2023-01-26T01:54:29.601Z,27
2023-01-26T01:55:29.089Z,26
2023-01-26T01:56:29.136Z,27
2023-01-26T01:57:29.095Z,27
2023-01-26T01:58:29.091Z,27
2023-01-26T01:59:29.203Z,27
2023-01-26T02:00:29.017Z,29
2023-01-26T02:01:29.429Z,30
2023-01-26T02:02:29.735Z,31
2023-01-26T02:03:29.373Z,31
2023-01-26T02:04:28.994Z,33
2023-01-26T02:05:29.557Z,31
2023-01-26T02:06:28.968Z,33
2023-01-26T02:07:28.985Z,31
2023-01-26T02:08:29.543Z,29
2023-01-26T02:09:29.614Z,26
2023-01-26T02:10:29.542Z,25
2023-01-26T02:11:29.269Z,27
2023-01-26T02:12:29.196Z,28
2023-01-26T02:13:29.180Z,32
2023-01-26T02:14:27.877Z,32
2023-01-26T02:15:29.509Z,31
2023-01-26T02:16:29.051Z,33
2023-01-26T02:17:29.493Z,32
2023-01-26T02:18:29.744Z,33
2023-01-26T02:19:29.814Z,34
2023-01-26T02:20:29.504Z,39
2023-01-26T02:21:29.862Z,35
2023-01-26T02:22:29.042Z,33
2023-01-26T02:23:29.564Z,34
2023-01-26T02:24:29.686Z,29
2023-01-26T02:25:29.257Z,39
2023-01-26T02:26:29.087Z,39
2023-01-26T02:27:29.487Z,36
2023-01-26T02:28:28.979Z,42
2023-01-26T02:29:29.636Z,33
2023-01-26T02:30:28.978Z,42
2023-01-26T02:31:29.349Z,39
2023-01-26T02:32:29.186Z,40
2023-01-26T02:33:29.001Z,41
2023-01-26T02:34:29.930Z,40
2023-01-26T02:35:28.990Z,42
2023-01-26T02:36:29.535Z,40
2023-01-26T02:37:29.650Z,40
2023-01-26T02:38:29.055Z,42
2023-01-26T02:39:29.684Z,46
2023-01-26T02:40:29.469Z,47
2023-01-26T02:41:29.091Z,46
2023-01-26T02:42:29.069Z,45
2023-01-26T02:43:29.387Z,41
2023-01-26T02:44:29.123Z,39
2023-01-26T02:45:29.591Z,40
2023-01-26T02:46:29.241Z,45
2023-01-26T02:47:29.266Z,41
2023-01-26T02:48:29.429Z,42
2023-01-26T02:49:29.235Z,40
2023-01-26T02:50:29.635Z,42
2023-01-26T02:51:29.401Z,38
2023-01-26T02:52:29.359Z,40
2023-01-26T02:53:29.159Z,40
2023-01-26T02:54:29.339Z,37
2023-01-26T02:55:29.449Z,46
2023-01-26T02:56:29.048Z,37
2023-01-26T02:57:29.012Z,40
2023-01-26T02:58:28.959Z,40
2023-01-26T02:59:28.988Z,40
2023-01-26T03:00:29.931Z,39
2023-01-26T03:01:32.328Z,41
2023-01-26T03:02:29.595Z,40
2023-01-26T03:03:29.126Z,39
2023-01-26T03:04:29.672Z,38
2023-01-26T03:05:29.156Z,41
2023-01-26T03:06:29.611Z,40
2023-01-26T03:07:29.019Z,43
2023-01-26T03:08:29.555Z,37
2023-01-26T03:09:29.058Z,35
2023-01-26T03:10:29.962Z,38
2023-01-26T03:11:29.989Z,34
2023-01-26T03:12:29.751Z,36
2023-01-26T03:13:29.064Z,34
2023-01-26T03:14:29.855Z,32
2023-01-26T03:15:28.957Z,39
2023-01-26T03:16:29.126Z,34
2023-01-26T03:17:29.059Z,36
2023-01-26T03:18:29.009Z,36
2023-01-26T03:19:29.979Z,35
2023-01-26T03:20:29.174Z,31
2023-01-26T03:21:28.109Z,32
2023-01-26T03:22:29.025Z,30
2023-01-26T03:23:29.102Z,32
2023-01-26T03:24:29.061Z,32
2023-01-26T03:25:29.586Z,36
2023-01-26T03:26:28.971Z,32
2023-01-26T03:27:28.967Z,30
2023-01-26T03:28:29.680Z,31
2023-01-26T03:29:29.342Z,36
2023-01-26T03:30:29.058Z,35
2023-01-26T03:31:29.926Z,35
2023-01-26T03:32:29.597Z,33
2023-01-26T03:33:29.148Z,35
2023-01-26T03:34:29.428Z,35
2023-01-26T03:35:29.499Z,34
2023-01-26T03:36:28.967Z,29
2023-01-26T03:37:29.710Z,37
2023-01-26T03:38:29.165Z,30
2023-01-26T03:39:29.555Z,30
2023-01-26T03:40:29.653Z,30
2023-01-26T03:41:29.453Z,36
2023-01-26T03:42:28.959Z,36
2023-01-26T03:43:29.216Z,30
2023-01-26T03:44:27.835Z,34
2023-01-26T03:45:29.087Z,35
2023-01-26T03:46:29.186Z,36
2023-01-26T03:47:28.971Z,36
2023-01-26T03:48:29.485Z,36
2023-01-26T03:49:29.106Z,37
2023-01-26T03:50:29.049Z,39
2023-01-26T03:51:29.006Z,39
2023-01-26T03:52:29.747Z,39
2023-01-26T03:53:28.956Z,38
2023-01-26T03:54:28.970Z,38
2023-01-26T03:55:29.738Z,39
2023-01-26T03:56:29.536Z,36
2023-01-26T03:57:29.045Z,37
2023-01-26T03:58:28.970Z,40
2023-01-26T03:59:29.060Z,41
2023-01-26T04:00:29.105Z,38
2023-01-26T04:01:29.077Z,41
2023-01-26T04:02:29.081Z,38
2023-01-26T04:03:29.478Z,39
2023-01-26T04:04:29.119Z,36
2023-01-26T04:05:29.305Z,37
2023-01-26T04:06:28.131Z,36
2023-01-26T04:07:28.962Z,38
2023-01-26T04:08:29.697Z,37
2023-01-26T04:09:28.990Z,37
2023-01-26T04:10:29.226Z,35
2023-01-26T04:11:29.554Z,33
2023-01-26T04:12:29.032Z,35
2023-01-26T04:13:29.370Z,38
2023-01-26T04:14:29.093Z,38
2023-01-26T04:15:29.551Z,33
2023-01-26T04:16:29.336Z,34
2023-01-26T04:17:29.063Z,33
2023-01-26T04:18:29.073Z,33
2023-01-26T04:19:29.130Z,32
2023-01-26T04:20:28.953Z,31
2023-01-26T04:21:29.304Z,32
2023-01-26T04:22:29.413Z,32
2023-01-26T04:23:28.998Z,29
2023-01-26T04:24:29.090Z,35
2023-01-26T04:25:31.162Z,30
2023-01-26T04:26:29.951Z,30
2023-01-26T04:27:29.020Z,29
2023-01-26T04:28:28.209Z,31
2023-01-26T04:29:29.373Z,28
2023-01-26T04:30:29.477Z,30
2023-01-26T04:31:28.986Z,33
2023-01-26T04:32:28.971Z,32
2023-01-26T04:33:29.072Z,33
2023-01-26T04:34:28.949Z,33
2023-01-26T04:35:28.971Z,34
2023-01-26T04:36:29.106Z,36
2023-01-26T04:37:29.589Z,34
2023-01-26T04:38:28.988Z,34
2023-01-26T04:39:29.530Z,35
2023-01-26T04:40:29.030Z,41
2023-01-26T04:41:29.797Z,37
2023-01-26T04:42:29.328Z,36
2023-01-26T04:43:29.886Z,39
2023-01-26T04:44:29.649Z,52
2023-01-26T04:45:29.144Z,37
2023-01-26T04:46:29.007Z,33
2023-01-26T04:47:29.580Z,30
2023-01-26T04:48:29.105Z,36
2023-01-26T04:49:28.963Z,34
2023-01-26T04:50:29.664Z,33
2023-01-26T04:51:29.489Z,31
2023-01-26T04:52:29.507Z,30
2023-01-26T04:53:28.971Z,31
2023-01-26T04:54:28.974Z,38
2023-01-26T04:55:29.586Z,46
2023-01-26T04:56:29.516Z,41
2023-01-26T04:57:28.947Z,44
2023-01-26T04:58:29.756Z,51
2023-01-26T04:59:28.943Z,45
2023-01-26T05:00:29.731Z,54
2023-01-26T05:01:29.697Z,45
2023-01-26T05:02:29.751Z,46
2023-01-26T05:03:29.610Z,43
2023-01-26T05:04:29.763Z,53
2023-01-26T05:05:29.412Z,48
2023-01-26T05:06:28.973Z,52
2023-01-26T05:07:29.719Z,49
2023-01-26T05:08:29.861Z,59
2023-01-26T05:09:29.082Z,39
2023-01-26T05:10:28.957Z,39
2023-01-26T05:11:28.971Z,53
2023-01-26T05:12:28.979Z,40
2023-01-26T05:13:29.063Z,46
2023-01-26T05:14:29.649Z,52
2023-01-26T05:15:29.346Z,43
2023-01-26T05:16:29.080Z,39
2023-01-26T05:17:29.969Z,56
2023-01-26T05:18:29.969Z,54
2023-01-26T05:19:28.983Z,72
2023-01-26T05:20:29.484Z,58
2023-01-26T05:21:28.953Z,55
2023-01-26T05:22:29.392Z,61
2023-01-26T05:23:29.623Z,50
2023-01-26T05:24:29.752Z,67
2023-01-26T05:25:28.955Z,64
2023-01-26T05:26:28.953Z,66
2023-01-26T05:27:29.414Z,51
2023-01-26T05:28:29.690Z,61
2023-01-26T05:29:29.562Z,65
2023-01-26T05:30:29.145Z,71
2023-01-26T05:31:29.527Z,69
2023-01-26T05:32:28.947Z,57
2023-01-26T05:33:28.955Z,78
2023-01-26T05:34:28.958Z,75
2023-01-26T05:35:29.458Z,82
2023-01-26T05:36:29.564Z,67
2023-01-26T05:37:29.860Z,86
2023-01-26T05:38:29.303Z,63
2023-01-26T05:39:28.933Z,69
2023-01-26T05:40:29.528Z,79
2023-01-26T05:41:28.928Z,51
2023-01-26T05:42:29.822Z,77
2023-01-26T05:43:29.668Z,68
2023-01-26T05:44:28.939Z,65
2023-01-26T05:45:29.472Z,63
2023-01-26T05:46:29.348Z,54
2023-01-26T05:47:28.981Z,58
2023-01-26T05:48:29.052Z,54
2023-01-26T05:49:29.567Z,61
2023-01-26T05:50:28.963Z,48
2023-01-26T05:51:29.475Z,57
2023-01-26T05:52:28.979Z,57
2023-01-26T05:53:30.025Z,52
2023-01-26T05:54:28.973Z,51
2023-01-26T05:55:29.186Z,48
2023-01-26T05:56:29.521Z,63
2023-01-26T05:57:29.517Z,60
2023-01-26T05:58:27.900Z,60
2023-01-26T05:59:29.099Z,54
2023-01-26T06:00:30.147Z,60
2023-01-26T06:01:29.539Z,52
2023-01-26T06:02:29.636Z,59
2023-01-26T06:03:29.031Z,55
2023-01-26T06:04:29.384Z,49
2023-01-26T06:05:29.223Z,56
2023-01-26T06:06:29.378Z,60
2023-01-26T06:07:29.344Z,56
2023-01-26T06:08:29.643Z,54
2023-01-26T06:09:28.951Z,52
2023-01-26T06:10:28.933Z,43
2023-01-26T06:11:28.933Z,59
2023-01-26T06:12:28.923Z,56
2023-01-26T06:13:29.182Z,53
2023-01-26T06:14:29.273Z,42
2023-01-26T06:15:29.560Z,41
2023-01-26T06:16:29.174Z,36
2023-01-26T06:17:29.547Z,40
2023-01-26T06:18:29.709Z,40
2023-01-26T06:19:29.585Z,37
2023-01-26T06:20:28.957Z,33
2023-01-26T06:21:29.778Z,34
2023-01-26T06:22:29.523Z,31
2023-01-26T06:23:29.707Z,37
2023-01-26T06:24:28.989Z,33
2023-01-26T06:25:29.283Z,33
2023-01-26T06:26:29.231Z,31
2023-01-26T06:27:28.933Z,32
2023-01-26T06:28:28.951Z,33
2023-01-26T06:29:29.030Z,32
2023-01-26T06:30:29.528Z,32
2023-01-26T06:31:29.590Z,30
2023-01-26T06:32:28.931Z,30
2023-01-26T06:33:28.957Z,35
2023-01-26T06:34:28.957Z,31
2023-01-26T06:35:29.592Z,31
2023-01-26T06:36:28.959Z,32
2023-01-26T06:37:29.784Z,33
2023-01-26T06:38:28.923Z,29
2023-01-26T06:39:28.933Z,32
2023-01-26T06:40:29.524Z,33
2023-01-26T06:41:29.055Z,42
2023-01-26T06:42:28.982Z,48
2023-01-26T06:43:27.859Z,52
2023-01-26T06:44:29.623Z,56
2023-01-26T06:45:29.415Z,63
2023-01-26T06:46:29.018Z,41
2023-01-26T06:47:29.288Z,41
2023-01-26T06:48:29.630Z,57
2023-01-26T06:49:29.528Z,51
2023-01-26T06:50:28.932Z,57
2023-01-26T06:51:29.627Z,74
2023-01-26T06:52:29.041Z,60
2023-01-26T06:53:28.946Z,37
2023-01-26T06:54:29.064Z,45
2023-01-26T06:55:29.625Z,55
2023-01-26T06:56:28.940Z,58
2023-01-26T06:57:29.187Z,57
2023-01-26T06:58:28.940Z,48
2023-01-26T06:59:29.652Z,50
2023-01-26T07:00:29.718Z,54
2023-01-26T07:01:28.967Z,44
2023-01-26T07:02:29.748Z,48
2023-01-26T07:03:29.773Z,49
2023-01-26T07:04:29.146Z,54
2023-01-26T07:05:28.946Z,48
2023-01-26T07:06:29.225Z,53
2023-01-26T07:07:28.909Z,53
2023-01-26T07:08:29.123Z,54
2023-01-26T07:09:29.055Z,42
2023-01-26T07:10:28.955Z,46
2023-01-26T07:11:29.945Z,77
2023-01-26T07:12:29.632Z,58
2023-01-26T07:13:29.303Z,71
2023-01-26T07:14:30.416Z,55
2023-01-26T07:15:29.344Z,57
2023-01-26T07:16:31.439Z,74
2023-01-26T07:17:29.173Z,63
2023-01-26T07:18:29.285Z,73
2023-01-26T07:19:29.407Z,73
2023-01-26T07:20:29.061Z,79
2023-01-26T07:21:29.155Z,68
2023-01-26T07:22:28.966Z,81
2023-01-26T07:23:29.682Z,68
2023-01-26T07:24:29.807Z,69
2023-01-26T07:25:28.372Z,70
2023-01-26T07:26:28.942Z,54
2023-01-26T07:27:29.566Z,62
2023-01-26T07:28:29.920Z,71
2023-01-26T07:29:28.942Z,64
2023-01-26T07:30:29.111Z,67
2023-01-26T07:31:29.554Z,70
2023-01-26T07:32:28.925Z,86
2023-01-26T07:33:29.484Z,80
2023-01-26T07:34:30.735Z,72
2023-01-26T07:35:28.968Z,81
2023-01-26T07:36:29.167Z,81
2023-01-26T07:37:28.922Z,72
2023-01-26T07:38:29.909Z,73
2023-01-26T07:39:29.243Z,78
2023-01-26T07:40:29.816Z,83
2023-01-26T07:41:29.004Z,62
2023-01-26T07:42:29.002Z,67
2023-01-26T07:43:29.130Z,83
2023-01-26T07:44:29.513Z,100
2023-01-26T07:45:28.910Z,67
2023-01-26T07:46:29.176Z,58
2023-01-26T07:47:28.897Z,80
2023-01-26T07:48:28.915Z,77
2023-01-26T07:49:29.032Z,75
2023-01-26T07:50:29.667Z,84
2023-01-26T07:51:29.793Z,81
2023-01-26T07:52:29.782Z,78
2023-01-26T07:53:28.976Z,74
2023-01-26T07:55:28.922Z,74
2023-01-26T07:56:28.929Z,66
2023-01-26T07:57:28.942Z,67
2023-01-26T07:58:29.678Z,65
2023-01-26T07:59:29.616Z,59
2023-01-26T08:00:29.108Z,46
2023-01-26T08:01:29.913Z,45
2023-01-26T08:02:29.134Z,50
2023-01-26T08:03:28.927Z,43
2023-01-26T08:04:29.039Z,45
2023-01-26T08:05:29.705Z,56
2023-01-26T08:06:28.928Z,46
2023-01-26T08:07:28.918Z,52
2023-01-26T08:08:29.656Z,51
2023-01-26T08:09:28.931Z,59
2023-01-26T08:10:29.496Z,55
2023-01-26T08:11:29.000Z,43
2023-01-26T08:12:28.977Z,43
2023-01-26T08:13:35.254Z,54
2023-01-26T08:14:41.609Z,68
2023-01-26T08:15:27.740Z,71
2023-01-26T08:16:29.261Z,73
2023-01-26T08:17:29.933Z,44
2023-01-26T08:18:29.027Z,62
2023-01-26T08:19:29.531Z,53
2023-01-26T08:20:29.551Z,46
2023-01-26T08:21:28.927Z,48
2023-01-26T08:22:28.921Z,103
2023-01-26T08:23:28.913Z,58
2023-01-26T08:24:28.912Z,102
2023-01-26T08:25:28.964Z,89
2023-01-26T08:26:28.931Z,108
2023-01-26T08:27:29.492Z,99
2023-01-26T08:28:29.286Z,76
2023-01-26T08:29:29.384Z,94
2023-01-26T08:30:28.909Z,111
2023-01-26T08:31:29.142Z,85
2023-01-26T08:32:29.313Z,115
2023-01-26T08:33:29.854Z,96
2023-01-26T08:34:28.939Z,85
2023-01-26T08:35:29.442Z,99
2023-01-26T08:36:29.299Z,107
2023-01-26T08:37:29.858Z,78
2023-01-26T08:38:28.946Z,78
2023-01-26T08:39:29.465Z,75
2023-01-26T08:40:29.669Z,98
2023-01-26T08:42:29.687Z,115
2023-01-26T08:43:29.666Z,117
2023-01-26T08:44:28.923Z,104
2023-01-26T08:45:30.765Z,97
2023-01-26T08:46:29.625Z,88
2023-01-26T08:47:28.948Z,94
2023-01-26T08:48:29.024Z,101
2023-01-26T08:49:28.913Z,62
2023-01-26T08:50:28.922Z,103
2023-01-26T08:51:29.740Z,80
2023-01-26T08:52:29.793Z,89
2023-01-26T08:53:28.950Z,80
2023-01-26T08:55:29.073Z,56
2023-01-26T08:56:29.683Z,82
2023-01-26T08:57:28.898Z,57
2023-01-26T08:58:28.973Z,87
2023-01-26T08:59:29.062Z,62
2023-01-26T09:00:29.121Z,96
2023-01-26T09:01:29.131Z,98
2023-01-26T09:02:29.332Z,79
2023-01-26T09:03:28.912Z,110
2023-01-26T09:04:29.328Z,97
2023-01-26T09:05:29.192Z,108
2023-01-26T09:06:29.790Z,99
2023-01-26T09:07:29.255Z,116
2023-01-26T09:09:28.958Z,69
2023-01-26T09:10:28.947Z,82
2023-01-26T09:11:29.294Z,94
2023-01-26T09:12:29.694Z,93
2023-01-26T09:13:29.601Z,102
2023-01-26T09:14:29.268Z,81
2023-01-26T09:15:28.893Z,82
2023-01-26T09:16:29.029Z,78
2023-01-26T09:18:28.947Z,89
2023-01-26T09:19:31.135Z,98
2023-01-26T09:20:28.949Z,74
2023-01-26T09:21:28.993Z,88
2023-01-26T09:22:28.929Z,67
2023-01-26T09:23:29.154Z,81
2023-01-26T09:24:29.044Z,78
2023-01-26T09:25:28.966Z,85
2023-01-26T09:26:29.677Z,82
2023-01-26T09:27:29.685Z,88
2023-01-26T09:28:28.969Z,70
2023-01-26T09:29:29.697Z,75
2023-01-26T09:30:29.867Z,82
2023-01-26T09:31:27.878Z,81
2023-01-26T09:32:29.397Z,88
2023-01-26T09:33:29.004Z,59
2023-01-26T09:34:28.906Z,60
2023-01-26T09:35:29.268Z,79
2023-01-26T09:36:29.434Z,65
2023-01-26T09:37:29.636Z,78
2023-01-26T09:39:27.806Z,75
2023-01-26T09:40:28.968Z,76
2023-01-26T09:41:29.493Z,84
2023-01-26T09:42:29.528Z,85
2023-01-26T09:43:29.671Z,85
2023-01-26T09:44:28.978Z,74
2023-01-26T09:45:29.451Z,94
2023-01-26T09:46:29.104Z,91
2023-01-26T09:47:28.983Z,102
2023-01-26T09:48:29.619Z,95
2023-01-26T09:49:28.908Z,63
2023-01-26T09:50:28.976Z,108
2023-01-26T09:52:29.103Z,86
2023-01-26T09:53:29.234Z,103
2023-01-26T09:54:29.960Z,90
2023-01-26T09:55:29.349Z,108
2023-01-26T09:56:29.042Z,115
2023-01-26T09:57:28.970Z,99
2023-01-26T09:58:28.902Z,97
2023-01-26T09:59:28.897Z,101
2023-01-26T10:00:28.935Z,98
2023-01-26T10:01:29.868Z,107
2023-01-26T10:02:29.607Z,92
2023-01-26T10:03:29.226Z,93
2023-01-26T10:04:28.900Z,86
2023-01-26T10:05:28.995Z,94
2023-01-26T10:06:28.890Z,100
2023-01-26T10:07:27.759Z,88
2023-01-26T10:08:28.891Z,94
2023-01-26T10:09:29.325Z,93
2023-01-26T10:10:29.699Z,70
2023-01-26T10:11:28.958Z,81
2023-01-26T10:12:29.231Z,74
2023-01-26T10:13:29.460Z,94
2023-01-26T10:14:29.003Z,102
2023-01-26T10:15:29.048Z,86
2023-01-26T10:16:29.070Z,79
2023-01-26T10:17:29.712Z,91
2023-01-26T10:18:29.044Z,79
2023-01-26T10:19:29.806Z,99
2023-01-26T10:20:29.150Z,96
2023-01-26T10:21:29.328Z,101
2023-01-26T10:22:29.195Z,102
2023-01-26T10:23:29.217Z,97
2023-01-26T10:24:28.985Z,98
2023-01-26T10:25:29.533Z,100
2023-01-26T10:26:29.287Z,99
2023-01-26T10:27:28.893Z,105
2023-01-26T10:28:28.915Z,87
2023-01-26T10:29:29.453Z,92
2023-01-26T10:30:29.755Z,93
2023-01-26T10:31:29.648Z,91
2023-01-26T10:32:28.983Z,110
2023-01-26T10:33:29.815Z,65
2023-01-26T10:34:28.895Z,98
2023-01-26T10:35:28.906Z,95
2023-01-26T10:36:28.909Z,83
2023-01-26T10:37:29.426Z,84
2023-01-26T10:38:29.532Z,92
2023-01-26T10:39:28.916Z,107
2023-01-26T10:40:29.738Z,92
2023-01-26T10:41:29.432Z,89
2023-01-26T10:42:29.066Z,99
2023-01-26T10:43:29.657Z,95
2023-01-26T10:44:29.360Z,95
2023-01-26T10:45:28.973Z,91
2023-01-26T10:46:29.673Z,105
2023-01-26T10:48:28.882Z,122
2023-01-26T10:49:28.877Z,102
2023-01-26T10:50:28.903Z,90
2023-01-26T10:51:29.745Z,103
2023-01-26T10:52:29.343Z,119
2023-01-26T10:53:28.874Z,89
2023-01-26T10:54:28.905Z,122
2023-01-26T10:55:29.151Z,117
2023-01-26T10:56:29.284Z,102
2023-01-26T10:57:27.754Z,109
2023-01-26T10:58:29.474Z,131
2023-01-26T10:59:29.545Z,126
2023-01-26T11:00:29.517Z,108
2023-01-26T11:01:29.559Z,110
2023-01-26T11:02:29.707Z,124
2023-01-26T11:03:29.181Z,94
2023-01-26T11:04:29.074Z,110
2023-01-26T11:05:27.759Z,95
2023-01-26T11:06:28.887Z,78
2023-01-26T11:07:28.896Z,115
2023-01-26T11:08:28.880Z,113
2023-01-26T11:09:29.409Z,125
2023-01-26T11:10:28.877Z,103
2023-01-26T11:11:29.222Z,116
2023-01-26T11:12:28.904Z,129
2023-01-26T11:13:29.631Z,104
2023-01-26T11:14:28.883Z,119
2023-01-26T11:15:28.873Z,119
2023-01-26T11:16:28.990Z,126
2023-01-26T11:17:29.881Z,114
2023-01-26T11:18:29.460Z,119
2023-01-26T11:20:28.914Z,117
2023-01-26T11:21:28.889Z,105
2023-01-26T11:22:28.886Z,132
2023-01-26T11:23:29.010Z,113
2023-01-26T11:24:28.915Z,106
2023-01-26T11:25:28.868Z,113
2023-01-26T11:26:28.865Z,100
2023-01-26T11:27:28.911Z,116
2023-01-26T11:28:28.890Z,112
2023-01-26T11:29:29.335Z,119
2023-01-26T11:30:29.131Z,130
2023-01-26T11:31:28.970Z,138
2023-01-26T11:32:28.882Z,127
2023-01-26T11:33:28.958Z,110
2023-01-26T11:35:28.144Z,130
2023-01-26T11:36:29.393Z,144
2023-01-26T11:37:29.396Z,105
2023-01-26T11:38:28.864Z,105
2023-01-26T11:39:29.408Z,92
2023-01-26T11:40:28.883Z,107
2023-01-26T11:41:28.910Z,114
2023-01-26T11:42:29.453Z,113
2023-01-26T11:43:28.880Z,113
2023-01-26T11:44:29.444Z,108
2023-01-26T11:45:28.895Z,113
2023-01-26T11:46:29.596Z,105
2023-01-26T11:47:28.972Z,114
2023-01-26T11:48:29.034Z,117
2023-01-26T11:49:29.172Z,106
2023-01-26T11:50:27.702Z,121
2023-01-26T11:51:29.608Z,89
2023-01-26T11:52:30.012Z,103
2023-01-26T11:53:28.867Z,107
2023-01-26T11:54:29.027Z,115
2023-01-26T11:55:28.863Z,119
2023-01-26T11:56:28.875Z,106
2023-01-26T11:57:28.873Z,120
2023-01-26T11:58:28.858Z,117
2023-01-26T12:00:30.946Z,116
2023-01-26T12:01:28.963Z,115
2023-01-26T12:02:29.771Z,117
2023-01-26T12:03:28.914Z,95
2023-01-26T12:04:29.890Z,98
2023-01-26T12:05:28.901Z,109
2023-01-26T12:06:29.588Z,111
2023-01-26T12:07:29.126Z,108
2023-01-26T12:08:29.689Z,119
2023-01-26T12:09:29.595Z,108
2023-01-26T12:10:29.997Z,109
2023-01-26T12:11:29.076Z,105
2023-01-26T12:12:29.136Z,120
2023-01-26T12:13:29.124Z,113
2023-01-26T12:14:28.981Z,109
2023-01-26T12:15:29.355Z,103
2023-01-26T12:16:29.499Z,108
2023-01-26T12:17:29.436Z,116
2023-01-26T12:18:42.143Z,108
2023-01-26T12:19:29.112Z,115
2023-01-26T12:20:29.099Z,110
2023-01-26T12:21:28.864Z,104
2023-01-26T12:22:28.872Z,116
2023-01-26T12:23:28.856Z,111
2023-01-26T12:25:04.931Z,105
2023-01-26T12:25:29.720Z,121
2023-01-26T12:26:28.861Z,119
2023-01-26T12:27:28.870Z,111
2023-01-26T12:28:29.657Z,104
2023-01-26T12:29:28.851Z,110
2023-01-26T12:30:29.859Z,107
2023-01-26T12:31:29.754Z,93
2023-01-26T12:32:29.561Z,118
2023-01-26T12:33:29.430Z,112
2023-01-26T12:34:29.184Z,109
2023-01-26T12:35:28.906Z,95
2023-01-26T12:36:29.423Z,122
2023-01-26T12:37:29.045Z,132
2023-01-26T12:38:29.185Z,109
2023-01-26T12:39:29.412Z,105
2023-01-26T12:40:29.231Z,97
2023-01-26T12:41:29.108Z,95
2023-01-26T12:42:29.595Z,64
2023-01-26T12:43:28.941Z,107
2023-01-26T12:44:29.617Z,111
2023-01-26T12:45:29.521Z,117
2023-01-26T12:46:28.955Z,115
2023-01-26T12:47:29.611Z,111
2023-01-26T12:48:28.923Z,123
2023-01-26T12:49:29.003Z,118
2023-01-26T12:50:29.298Z,125
2023-01-26T12:51:28.859Z,80
2023-01-26T12:52:28.994Z,116
2023-01-26T12:53:29.862Z,80
2023-01-26T12:54:28.867Z,103
2023-01-26T12:55:29.894Z,101
2023-01-26T12:56:29.374Z,111
2023-01-26T12:57:28.129Z,86
2023-01-26T12:58:29.212Z,85
2023-01-26T12:59:47.109Z,72
2023-01-26T13:00:28.891Z,68
2023-01-26T13:01:28.922Z,77
2023-01-26T13:02:29.069Z,67
2023-01-26T13:03:28.841Z,79
2023-01-26T13:04:29.115Z,61
2023-01-26T13:05:29.076Z,61
2023-01-26T13:06:29.655Z,63
2023-01-26T13:07:29.592Z,64
2023-01-26T13:08:28.867Z,62
2023-01-26T13:09:28.981Z,70
2023-01-26T13:10:29.687Z,69
2023-01-26T13:11:29.575Z,74
2023-01-26T13:12:29.290Z,57
2023-01-26T13:13:29.083Z,66
2023-01-26T13:14:29.426Z,67
2023-01-26T13:15:29.652Z,63
2023-01-26T13:16:29.805Z,65
2023-01-26T13:17:29.963Z,78
2023-01-26T13:18:28.849Z,66
2023-01-26T13:19:29.736Z,74
2023-01-26T13:20:29.165Z,77
2023-01-26T13:21:28.932Z,60
2023-01-26T13:22:29.568Z,60
2023-01-26T13:23:28.947Z,72
2023-01-26T13:24:29.002Z,67
2023-01-26T13:25:29.086Z,66
2023-01-26T13:26:28.945Z,67
2023-01-26T13:27:28.854Z,81
2023-01-26T13:28:29.208Z,64
2023-01-26T13:29:29.340Z,69
2023-01-26T13:30:29.008Z,71
2023-01-26T13:31:28.959Z,62
2023-01-26T13:32:28.975Z,63
2023-01-26T13:33:28.855Z,65
2023-01-26T13:34:28.865Z,60
2023-01-26T13:35:28.982Z,61
2023-01-26T13:36:29.533Z,59
2023-01-26T13:37:28.955Z,55
2023-01-26T13:38:29.382Z,45
2023-01-26T13:39:29.060Z,42
2023-01-26T13:40:31.084Z,83
2023-01-26T13:41:29.265Z,69
2023-01-26T13:42:29.267Z,51
2023-01-26T13:43:28.879Z,62
2023-01-26T13:44:28.854Z,63
2023-01-26T13:45:29.632Z,54
2023-01-26T13:46:29.007Z,49
2023-01-26T13:47:28.929Z,56
2023-01-26T13:48:29.640Z,58
2023-01-26T13:49:28.910Z,64
2023-01-26T13:50:28.183Z,71
2023-01-26T13:51:29.423Z,68
2023-01-26T13:52:28.886Z,61
2023-01-26T13:53:29.473Z,70
2023-01-26T13:56:28.844Z,72
2023-01-26T13:57:28.843Z,67
2023-01-26T13:58:28.828Z,52
2023-01-26T13:59:28.980Z,53
2023-01-26T14:00:28.893Z,53
2023-01-26T14:01:31.809Z,52
2023-01-26T14:02:28.974Z,56
2023-01-26T14:03:28.929Z,55
2023-01-26T14:04:29.392Z,56
2023-01-26T14:05:29.612Z,55
2023-01-26T14:07:29.500Z,42
2023-01-26T14:08:29.039Z,50
2023-01-26T14:09:29.155Z,49
2023-01-26T14:10:29.139Z,45
2023-01-26T14:11:29.053Z,56
2023-01-26T14:12:29.372Z,51
2023-01-26T14:13:28.860Z,53
2023-01-26T14:14:28.991Z,54
2023-01-26T14:15:29.069Z,48
2023-01-26T14:16:28.990Z,53
2023-01-26T14:17:28.869Z,53
2023-01-26T14:18:28.861Z,54
2023-01-26T14:19:29.667Z,60
2023-01-26T14:20:29.778Z,58
2023-01-26T14:21:29.282Z,58
2023-01-26T14:23:29.038Z,64
2023-01-26T14:24:29.192Z,53
2023-01-26T14:25:29.393Z,59